sensor_id;sensor_type;location;lat;lon;timestamp;P1;durP1;ratioP1;P2;durP2;ratioP2
5608;SDS011;2826;51.354;9.588;2022-07-24T00:01:20;4.00;;;2.60;;
5608;SDS011;2826;51.354;9.588;2022-07-24T00:03:47;4.03;;;2.00;;
5608;SDS011;2826;51.354;9.588;2022-07-24T00:06:15;3.03;;;2.30;;
5608;SDS011;2826;51.354;9.588;2022-07-24T00:08:42;3.00;;;2.60;;
5608;SDS011;2826;51.354;9.588;2022-07-24T00:11:09;3.30;;;2.40;;
5608;SDS011;2826;51.354;9.588;2022-07-24T00:13:36;4.60;;;2.47;;
5608;SDS011;2826;51.354;9.588;2022-07-24T00:16:03;4.47;;;2.23;;
5608;SDS011;2826;51.354;9.588;2022-07-24T00:18:30;3.43;;;2.10;;
5608;SDS011;2826;51.354;9.588;2022-07-24T00:20:57;3.70;;;2.60;;
5608;SDS011;2826;51.354;9.588;2022-07-24T00:23:26;2.80;;;2.07;;
5608;SDS011;2826;51.354;9.588;2022-07-24T00:25:53;2.10;;;1.97;;
5608;SDS011;2826;51.354;9.588;2022-07-24T00:28:20;2.10;;;2.00;;
5608;SDS011;2826;51.354;9.588;2022-07-24T00:30:47;2.53;;;1.80;;
5608;SDS011;2826;51.354;9.588;2022-07-24T00:33:14;2.77;;;2.27;;
5608;SDS011;2826;51.354;9.588;2022-07-24T00:35:41;2.17;;;1.97;;
5608;SDS011;2826;51.354;9.588;2022-07-24T00:38:08;4.00;;;2.10;;
5608;SDS011;2826;51.354;9.588;2022-07-24T00:40:37;2.87;;;2.30;;
5608;SDS011;2826;51.354;9.588;2022-07-24T00:43:04;2.50;;;2.30;;
5608;SDS011;2826;51.354;9.588;2022-07-24T00:45:31;2.33;;;2.13;;
5608;SDS011;2826;51.354;9.588;2022-07-24T00:47:58;3.30;;;2.30;;
5608;SDS011;2826;51.354;9.588;2022-07-24T00:50:25;2.50;;;2.30;;
5608;SDS011;2826;51.354;9.588;2022-07-24T00:52:52;3.03;;;2.40;;
5608;SDS011;2826;51.354;9.588;2022-07-24T00:55:22;3.53;;;2.57;;
5608;SDS011;2826;51.354;9.588;2022-07-24T00:57:50;2.97;;;2.40;;
5608;SDS011;2826;51.354;9.588;2022-07-24T01:00:17;2.77;;;2.20;;
5608;SDS011;2826;51.354;9.588;2022-07-24T01:02:48;6.27;;;2.23;;
5608;SDS011;2826;51.354;9.588;2022-07-24T01:05:16;2.83;;;2.53;;
5608;SDS011;2826;51.354;9.588;2022-07-24T01:07:45;3.00;;;2.70;;
5608;SDS011;2826;51.354;9.588;2022-07-24T01:10:12;2.57;;;2.33;;
5608;SDS011;2826;51.354;9.588;2022-07-24T01:12:40;2.90;;;2.50;;
5608;SDS011;2826;51.354;9.588;2022-07-24T01:15:09;2.70;;;2.50;;
5608;SDS011;2826;51.354;9.588;2022-07-24T01:17:38;3.10;;;2.80;;
5608;SDS011;2826;51.354;9.588;2022-07-24T01:20:07;3.10;;;2.37;;
5608;SDS011;2826;51.354;9.588;2022-07-24T01:22:36;2.63;;;2.13;;
5608;SDS011;2826;51.354;9.588;2022-07-24T01:25:03;2.50;;;2.30;;
5608;SDS011;2826;51.354;9.588;2022-07-24T01:27:31;2.10;;;1.90;;
5608;SDS011;2826;51.354;9.588;2022-07-24T01:29:58;4.30;;;2.27;;
5608;SDS011;2826;51.354;9.588;2022-07-24T01:32:25;4.07;;;2.37;;
5608;SDS011;2826;51.354;9.588;2022-07-24T01:34:52;2.47;;;2.27;;
5608;SDS011;2826;51.354;9.588;2022-07-24T01:37:19;2.43;;;2.20;;
5608;SDS011;2826;51.354;9.588;2022-07-24T01:39:47;2.30;;;2.10;;
5608;SDS011;2826;51.354;9.588;2022-07-24T01:42:14;2.27;;;2.17;;
5608;SDS011;2826;51.354;9.588;2022-07-24T01:44:41;2.57;;;2.37;;
5608;SDS011;2826;51.354;9.588;2022-07-24T01:47:08;2.60;;;2.40;;
5608;SDS011;2826;51.354;9.588;2022-07-24T01:49:35;2.30;;;2.10;;
5608;SDS011;2826;51.354;9.588;2022-07-24T01:52:02;3.87;;;2.40;;
5608;SDS011;2826;51.354;9.588;2022-07-24T01:54:29;5.23;;;2.30;;
5608;SDS011;2826;51.354;9.588;2022-07-24T01:57:00;2.07;;;1.97;;
5608;SDS011;2826;51.354;9.588;2022-07-24T01:59:27;2.10;;;1.90;;
5608;SDS011;2826;51.354;9.588;2022-07-24T02:01:53;3.73;;;2.00;;
5608;SDS011;2826;51.354;9.588;2022-07-24T02:04:20;2.53;;;2.00;;
5608;SDS011;2826;51.354;9.588;2022-07-24T02:06:47;3.33;;;2.20;;
5608;SDS011;2826;51.354;9.588;2022-07-24T02:09:14;8.20;;;2.10;;
5608;SDS011;2826;51.354;9.588;2022-07-24T02:11:40;3.87;;;2.30;;
5608;SDS011;2826;51.354;9.588;2022-07-24T02:14:09;3.57;;;2.10;;
5608;SDS011;2826;51.354;9.588;2022-07-24T02:16:35;3.27;;;2.17;;
5608;SDS011;2826;51.354;9.588;2022-07-24T02:19:02;2.60;;;1.87;;
5608;SDS011;2826;51.354;9.588;2022-07-24T02:21:29;2.20;;;2.00;;
5608;SDS011;2826;51.354;9.588;2022-07-24T02:23:56;2.13;;;1.93;;
5608;SDS011;2826;51.354;9.588;2022-07-24T02:26:23;3.50;;;1.90;;
5608;SDS011;2826;51.354;9.588;2022-07-24T02:28:50;4.40;;;2.30;;
5608;SDS011;2826;51.354;9.588;2022-07-24T02:31:18;4.80;;;2.57;;
5608;SDS011;2826;51.354;9.588;2022-07-24T02:33:45;3.10;;;2.13;;
5608;SDS011;2826;51.354;9.588;2022-07-24T02:36:12;2.33;;;2.13;;
5608;SDS011;2826;51.354;9.588;2022-07-24T02:38:39;3.30;;;2.03;;
5608;SDS011;2826;51.354;9.588;2022-07-24T02:41:06;5.50;;;1.87;;
5608;SDS011;2826;51.354;9.588;2022-07-24T02:43:33;2.63;;;2.00;;
5608;SDS011;2826;51.354;9.588;2022-07-24T02:46:00;3.03;;;2.23;;
5608;SDS011;2826;51.354;9.588;2022-07-24T02:48:28;1.90;;;1.80;;
5608;SDS011;2826;51.354;9.588;2022-07-24T02:50:56;2.27;;;2.07;;
5608;SDS011;2826;51.354;9.588;2022-07-24T02:53:23;3.00;;;2.30;;
5608;SDS011;2826;51.354;9.588;2022-07-24T02:55:50;2.60;;;1.80;;
5608;SDS011;2826;51.354;9.588;2022-07-24T02:58:16;2.73;;;2.10;;
5608;SDS011;2826;51.354;9.588;2022-07-24T03:00:43;2.00;;;1.90;;
5608;SDS011;2826;51.354;9.588;2022-07-24T03:03:10;4.70;;;2.17;;
5608;SDS011;2826;51.354;9.588;2022-07-24T03:05:39;2.83;;;2.03;;
5608;SDS011;2826;51.354;9.588;2022-07-24T03:08:05;2.90;;;2.00;;
5608;SDS011;2826;51.354;9.588;2022-07-24T03:10:32;7.27;;;2.30;;
5608;SDS011;2826;51.354;9.588;2022-07-24T03:12:59;1.90;;;1.80;;
5608;SDS011;2826;51.354;9.588;2022-07-24T03:15:26;3.77;;;1.80;;
5608;SDS011;2826;51.354;9.588;2022-07-24T03:17:53;1.97;;;1.87;;
5608;SDS011;2826;51.354;9.588;2022-07-24T03:20:22;2.53;;;1.90;;
5608;SDS011;2826;51.354;9.588;2022-07-24T03:22:51;2.80;;;2.00;;
5608;SDS011;2826;51.354;9.588;2022-07-24T03:25:18;4.70;;;2.30;;
5608;SDS011;2826;51.354;9.588;2022-07-24T03:27:46;2.13;;;1.90;;
5608;SDS011;2826;51.354;9.588;2022-07-24T03:30:14;2.30;;;1.87;;
5608;SDS011;2826;51.354;9.588;2022-07-24T03:32:42;2.20;;;2.00;;
5608;SDS011;2826;51.354;9.588;2022-07-24T03:35:09;2.50;;;2.30;;
5608;SDS011;2826;51.354;9.588;2022-07-24T03:37:36;2.90;;;2.03;;
5608;SDS011;2826;51.354;9.588;2022-07-24T03:40:05;2.00;;;1.90;;
5608;SDS011;2826;51.354;9.588;2022-07-24T03:42:32;6.90;;;2.10;;
5608;SDS011;2826;51.354;9.588;2022-07-24T03:44:59;1.93;;;1.80;;
5608;SDS011;2826;51.354;9.588;2022-07-24T03:47:27;3.70;;;1.80;;
5608;SDS011;2826;51.354;9.588;2022-07-24T03:49:54;1.90;;;1.80;;
5608;SDS011;2826;51.354;9.588;2022-07-24T03:52:21;4.07;;;2.20;;
5608;SDS011;2826;51.354;9.588;2022-07-24T03:54:48;4.23;;;1.80;;
5608;SDS011;2826;51.354;9.588;2022-07-24T03:57:16;2.00;;;1.90;;
5608;SDS011;2826;51.354;9.588;2022-07-24T03:59:43;8.77;;;1.70;;
5608;SDS011;2826;51.354;9.588;2022-07-24T04:02:10;2.23;;;2.00;;
5608;SDS011;2826;51.354;9.588;2022-07-24T04:04:37;2.33;;;2.07;;
5608;SDS011;2826;51.354;9.588;2022-07-24T04:07:04;3.77;;;2.33;;
5608;SDS011;2826;51.354;9.588;2022-07-24T04:09:31;3.73;;;2.20;;
5608;SDS011;2826;51.354;9.588;2022-07-24T04:11:58;2.37;;;1.80;;
5608;SDS011;2826;51.354;9.588;2022-07-24T04:14:26;2.53;;;2.10;;
5608;SDS011;2826;51.354;9.588;2022-07-24T04:16:54;2.53;;;2.00;;
5608;SDS011;2826;51.354;9.588;2022-07-24T04:19:21;2.40;;;2.20;;
5608;SDS011;2826;51.354;9.588;2022-07-24T04:21:48;2.27;;;2.07;;
5608;SDS011;2826;51.354;9.588;2022-07-24T04:24:15;4.30;;;2.00;;
5608;SDS011;2826;51.354;9.588;2022-07-24T04:26:42;2.17;;;1.97;;
5608;SDS011;2826;51.354;9.588;2022-07-24T04:29:09;2.57;;;2.03;;
5608;SDS011;2826;51.354;9.588;2022-07-24T04:31:37;3.53;;;2.17;;
5608;SDS011;2826;51.354;9.588;2022-07-24T04:34:04;2.53;;;2.33;;
5608;SDS011;2826;51.354;9.588;2022-07-24T04:36:31;2.03;;;1.90;;
5608;SDS011;2826;51.354;9.588;2022-07-24T04:38:58;5.33;;;2.33;;
5608;SDS011;2826;51.354;9.588;2022-07-24T04:41:25;3.33;;;1.97;;
5608;SDS011;2826;51.354;9.588;2022-07-24T04:43:52;2.80;;;2.03;;
5608;SDS011;2826;51.354;9.588;2022-07-24T04:46:19;1.97;;;1.87;;
5608;SDS011;2826;51.354;9.588;2022-07-24T04:48:47;11.03;;;2.40;;
5608;SDS011;2826;51.354;9.588;2022-07-24T04:51:14;4.90;;;2.20;;
5608;SDS011;2826;51.354;9.588;2022-07-24T04:53:40;2.80;;;2.03;;
5608;SDS011;2826;51.354;9.588;2022-07-24T04:56:07;2.87;;;2.10;;
5608;SDS011;2826;51.354;9.588;2022-07-24T04:58:34;7.63;;;2.00;;
5608;SDS011;2826;51.354;9.588;2022-07-24T05:01:01;2.33;;;2.13;;
5608;SDS011;2826;51.354;9.588;2022-07-24T05:03:27;3.40;;;2.27;;
5608;SDS011;2826;51.354;9.588;2022-07-24T05:05:55;3.13;;;1.90;;
5608;SDS011;2826;51.354;9.588;2022-07-24T05:08:22;3.57;;;2.13;;
5608;SDS011;2826;51.354;9.588;2022-07-24T05:10:49;2.40;;;2.20;;
5608;SDS011;2826;51.354;9.588;2022-07-24T05:13:16;2.23;;;1.97;;
5608;SDS011;2826;51.354;9.588;2022-07-24T05:15:43;2.93;;;2.53;;
5608;SDS011;2826;51.354;9.588;2022-07-24T05:18:09;2.33;;;2.17;;
5608;SDS011;2826;51.354;9.588;2022-07-24T05:20:36;5.90;;;2.53;;
5608;SDS011;2826;51.354;9.588;2022-07-24T05:23:04;4.03;;;3.10;;
5608;SDS011;2826;51.354;9.588;2022-07-24T05:25:31;5.13;;;3.30;;
5608;SDS011;2826;51.354;9.588;2022-07-24T05:27:58;5.67;;;2.77;;
5608;SDS011;2826;51.354;9.588;2022-07-24T05:30:25;6.23;;;3.43;;
5608;SDS011;2826;51.354;9.588;2022-07-24T05:32:52;7.07;;;3.33;;
5608;SDS011;2826;51.354;9.588;2022-07-24T05:35:19;3.57;;;3.23;;
5608;SDS011;2826;51.354;9.588;2022-07-24T05:37:46;3.60;;;3.30;;
5608;SDS011;2826;51.354;9.588;2022-07-24T05:40:14;3.83;;;3.53;;
5608;SDS011;2826;51.354;9.588;2022-07-24T05:42:41;6.60;;;4.50;;
5608;SDS011;2826;51.354;9.588;2022-07-24T05:45:08;6.10;;;4.23;;
5608;SDS011;2826;51.354;9.588;2022-07-24T05:47:35;5.70;;;4.90;;
5608;SDS011;2826;51.354;9.588;2022-07-24T05:50:05;11.27;;;5.10;;
5608;SDS011;2826;51.354;9.588;2022-07-24T05:52:34;6.00;;;4.30;;
5608;SDS011;2826;51.354;9.588;2022-07-24T05:55:01;5.50;;;4.57;;
5608;SDS011;2826;51.354;9.588;2022-07-24T05:57:30;7.43;;;4.60;;
5608;SDS011;2826;51.354;9.588;2022-07-24T05:59:57;5.57;;;4.80;;
5608;SDS011;2826;51.354;9.588;2022-07-24T06:02:24;6.30;;;4.37;;
5608;SDS011;2826;51.354;9.588;2022-07-24T06:04:51;10.30;;;4.17;;
5608;SDS011;2826;51.354;9.588;2022-07-24T06:07:18;5.03;;;3.90;;
5608;SDS011;2826;51.354;9.588;2022-07-24T06:09:44;5.30;;;4.60;;
5608;SDS011;2826;51.354;9.588;2022-07-24T06:12:11;5.63;;;4.10;;
5608;SDS011;2826;51.354;9.588;2022-07-24T06:14:39;5.67;;;4.40;;
5608;SDS011;2826;51.354;9.588;2022-07-24T06:17:06;9.23;;;5.03;;
5608;SDS011;2826;51.354;9.588;2022-07-24T06:19:33;4.63;;;4.17;;
5608;SDS011;2826;51.354;9.588;2022-07-24T06:22:00;5.40;;;4.50;;
5608;SDS011;2826;51.354;9.588;2022-07-24T06:24:27;6.43;;;4.10;;
5608;SDS011;2826;51.354;9.588;2022-07-24T06:26:53;6.53;;;4.10;;
5608;SDS011;2826;51.354;9.588;2022-07-24T06:29:20;5.20;;;4.30;;
5608;SDS011;2826;51.354;9.588;2022-07-24T06:31:48;5.03;;;3.90;;
5608;SDS011;2826;51.354;9.588;2022-07-24T06:34:15;3.60;;;3.30;;
5608;SDS011;2826;51.354;9.588;2022-07-24T06:36:42;8.70;;;3.83;;
5608;SDS011;2826;51.354;9.588;2022-07-24T06:39:09;5.37;;;3.93;;
5608;SDS011;2826;51.354;9.588;2022-07-24T06:41:35;4.80;;;3.60;;
5608;SDS011;2826;51.354;9.588;2022-07-24T06:44:07;5.27;;;3.63;;
5608;SDS011;2826;51.354;9.588;2022-07-24T06:46:34;8.00;;;3.37;;
5608;SDS011;2826;51.354;9.588;2022-07-24T06:49:02;4.60;;;3.27;;
5608;SDS011;2826;51.354;9.588;2022-07-24T06:51:29;4.63;;;3.33;;
5608;SDS011;2826;51.354;9.588;2022-07-24T06:53:56;4.90;;;2.70;;
5608;SDS011;2826;51.354;9.588;2022-07-24T06:56:23;11.40;;;3.13;;
5608;SDS011;2826;51.354;9.588;2022-07-24T06:58:50;4.17;;;3.07;;
5608;SDS011;2826;51.354;9.588;2022-07-24T07:01:17;4.73;;;3.47;;
5608;SDS011;2826;51.354;9.588;2022-07-24T07:03:44;5.57;;;3.33;;
5608;SDS011;2826;51.354;9.588;2022-07-24T07:06:12;8.20;;;2.57;;
5608;SDS011;2826;51.354;9.588;2022-07-24T07:08:39;3.90;;;3.17;;
5608;SDS011;2826;51.354;9.588;2022-07-24T07:11:06;6.13;;;2.70;;
5608;SDS011;2826;51.354;9.588;2022-07-24T07:13:33;3.60;;;2.87;;
5608;SDS011;2826;51.354;9.588;2022-07-24T07:16:00;4.40;;;2.60;;
5608;SDS011;2826;51.354;9.588;2022-07-24T07:18:27;3.33;;;2.30;;
5608;SDS011;2826;51.354;9.588;2022-07-24T07:20:53;2.57;;;2.37;;
5608;SDS011;2826;51.354;9.588;2022-07-24T07:23:22;4.27;;;2.53;;
5608;SDS011;2826;51.354;9.588;2022-07-24T07:25:51;3.17;;;2.10;;
5608;SDS011;2826;51.354;9.588;2022-07-24T07:28:19;3.37;;;2.80;;
5608;SDS011;2826;51.354;9.588;2022-07-24T07:30:46;4.90;;;2.50;;
5608;SDS011;2826;51.354;9.588;2022-07-24T07:33:13;6.03;;;2.67;;
5608;SDS011;2826;51.354;9.588;2022-07-24T07:35:40;3.00;;;2.70;;
5608;SDS011;2826;51.354;9.588;2022-07-24T07:38:06;4.20;;;2.60;;
5608;SDS011;2826;51.354;9.588;2022-07-24T07:40:35;2.40;;;2.07;;
5608;SDS011;2826;51.354;9.588;2022-07-24T07:43:01;4.63;;;2.40;;
5608;SDS011;2826;51.354;9.588;2022-07-24T07:45:28;4.87;;;3.30;;
5608;SDS011;2826;51.354;9.588;2022-07-24T07:47:55;3.00;;;2.30;;
5608;SDS011;2826;51.354;9.588;2022-07-24T07:50:22;4.03;;;3.30;;
5608;SDS011;2826;51.354;9.588;2022-07-24T07:52:49;2.50;;;2.30;;
5608;SDS011;2826;51.354;9.588;2022-07-24T07:55:15;2.63;;;2.40;;
5608;SDS011;2826;51.354;9.588;2022-07-24T07:57:43;2.07;;;1.93;;
5608;SDS011;2826;51.354;9.588;2022-07-24T08:00:11;2.70;;;2.20;;
5608;SDS011;2826;51.354;9.588;2022-07-24T08:02:38;2.60;;;2.17;;
5608;SDS011;2826;51.354;9.588;2022-07-24T08:05:05;3.67;;;2.10;;
5608;SDS011;2826;51.354;9.588;2022-07-24T08:07:33;2.30;;;2.10;;
5608;SDS011;2826;51.354;9.588;2022-07-24T08:09:59;4.23;;;2.10;;
5608;SDS011;2826;51.354;9.588;2022-07-24T08:12:27;2.33;;;2.13;;
5608;SDS011;2826;51.354;9.588;2022-07-24T08:14:55;4.30;;;2.20;;
5608;SDS011;2826;51.354;9.588;2022-07-24T08:17:22;2.50;;;2.27;;
5608;SDS011;2826;51.354;9.588;2022-07-24T08:19:49;2.50;;;2.30;;
5608;SDS011;2826;51.354;9.588;2022-07-24T08:22:16;3.20;;;2.70;;
5608;SDS011;2826;51.354;9.588;2022-07-24T08:24:42;5.13;;;2.43;;
5608;SDS011;2826;51.354;9.588;2022-07-24T08:27:09;3.37;;;2.57;;
5608;SDS011;2826;51.354;9.588;2022-07-24T08:29:36;3.60;;;3.20;;
5608;SDS011;2826;51.354;9.588;2022-07-24T08:32:04;2.87;;;2.60;;
5608;SDS011;2826;51.354;9.588;2022-07-24T08:34:31;2.70;;;2.47;;
5608;SDS011;2826;51.354;9.588;2022-07-24T08:36:58;3.23;;;2.80;;
5608;SDS011;2826;51.354;9.588;2022-07-24T08:39:25;4.77;;;2.53;;
5608;SDS011;2826;51.354;9.588;2022-07-24T08:41:52;7.50;;;2.87;;
5608;SDS011;2826;51.354;9.588;2022-07-24T08:44:19;6.00;;;3.00;;
5608;SDS011;2826;51.354;9.588;2022-07-24T08:46:46;3.27;;;2.90;;
5608;SDS011;2826;51.354;9.588;2022-07-24T08:49:14;3.23;;;2.80;;
5608;SDS011;2826;51.354;9.588;2022-07-24T08:51:42;3.70;;;2.53;;
5608;SDS011;2826;51.354;9.588;2022-07-24T08:54:09;3.20;;;2.90;;
5608;SDS011;2826;51.354;9.588;2022-07-24T08:56:37;9.37;;;3.20;;
5608;SDS011;2826;51.354;9.588;2022-07-24T08:59:10;6.30;;;3.37;;
5608;SDS011;2826;51.354;9.588;2022-07-24T09:01:42;8.00;;;3.23;;
5608;SDS011;2826;51.354;9.588;2022-07-24T09:06:58;5.33;;;3.10;;
5608;SDS011;2826;51.354;9.588;2022-07-24T09:09:25;4.50;;;3.00;;
5608;SDS011;2826;51.354;9.588;2022-07-24T09:11:58;4.07;;;3.37;;
5608;SDS011;2826;51.354;9.588;2022-07-24T09:14:29;3.80;;;2.97;;
5608;SDS011;2826;51.354;9.588;2022-07-24T09:17:00;3.97;;;3.50;;
5608;SDS011;2826;51.354;9.588;2022-07-24T09:19:28;3.83;;;3.10;;
5608;SDS011;2826;51.354;9.588;2022-07-24T09:21:56;4.80;;;3.77;;
5608;SDS011;2826;51.354;9.588;2022-07-24T09:24:23;3.97;;;3.37;;
5608;SDS011;2826;51.354;9.588;2022-07-24T09:26:51;6.17;;;3.30;;
5608;SDS011;2826;51.354;9.588;2022-07-24T09:29:20;5.07;;;3.53;;
5608;SDS011;2826;51.354;9.588;2022-07-24T09:31:48;3.50;;;3.03;;
5608;SDS011;2826;51.354;9.588;2022-07-24T09:34:19;5.10;;;3.40;;
5608;SDS011;2826;51.354;9.588;2022-07-24T09:36:58;6.53;;;3.00;;
5608;SDS011;2826;51.354;9.588;2022-07-24T09:39:27;3.87;;;3.40;;
5608;SDS011;2826;51.354;9.588;2022-07-24T09:41:55;3.57;;;2.83;;
5608;SDS011;2826;51.354;9.588;2022-07-24T09:44:23;5.93;;;3.43;;
5608;SDS011;2826;51.354;9.588;2022-07-24T09:46:54;5.83;;;3.60;;
5608;SDS011;2826;51.354;9.588;2022-07-24T09:49:23;6.17;;;4.10;;
5608;SDS011;2826;51.354;9.588;2022-07-24T09:52:07;5.67;;;3.60;;
5608;SDS011;2826;51.354;9.588;2022-07-24T09:54:38;4.77;;;2.87;;
5608;SDS011;2826;51.354;9.588;2022-07-24T09:57:15;6.13;;;3.50;;
5608;SDS011;2826;51.354;9.588;2022-07-24T09:59:45;6.00;;;3.33;;
5608;SDS011;2826;51.354;9.588;2022-07-24T10:02:13;3.60;;;2.93;;
5608;SDS011;2826;51.354;9.588;2022-07-24T10:04:42;5.30;;;3.60;;
5608;SDS011;2826;51.354;9.588;2022-07-24T10:07:15;10.23;;;2.93;;
5608;SDS011;2826;51.354;9.588;2022-07-24T10:09:44;4.70;;;3.33;;
5608;SDS011;2826;51.354;9.588;2022-07-24T10:12:13;5.30;;;3.40;;
5608;SDS011;2826;51.354;9.588;2022-07-24T10:14:42;4.03;;;3.50;;
5608;SDS011;2826;51.354;9.588;2022-07-24T10:17:10;3.57;;;3.27;;
5608;SDS011;2826;51.354;9.588;2022-07-24T10:19:39;5.40;;;3.00;;
5608;SDS011;2826;51.354;9.588;2022-07-24T10:22:09;3.60;;;3.10;;
5608;SDS011;2826;51.354;9.588;2022-07-24T10:24:55;4.20;;;3.40;;
5608;SDS011;2826;51.354;9.588;2022-07-24T10:27:24;4.07;;;3.30;;
5608;SDS011;2826;51.354;9.588;2022-07-24T10:29:55;7.47;;;3.70;;
5608;SDS011;2826;51.354;9.588;2022-07-24T10:32:23;3.67;;;3.30;;
5608;SDS011;2826;51.354;9.588;2022-07-24T10:34:52;11.00;;;3.43;;
5608;SDS011;2826;51.354;9.588;2022-07-24T10:37:28;4.30;;;3.47;;
5608;SDS011;2826;51.354;9.588;2022-07-24T10:40:04;5.43;;;3.13;;
5608;SDS011;2826;51.354;9.588;2022-07-24T10:45:36;4.63;;;3.83;;
5608;SDS011;2826;51.354;9.588;2022-07-24T10:51:04;4.37;;;3.20;;
5608;SDS011;2826;51.354;9.588;2022-07-24T10:53:44;5.40;;;3.30;;
5608;SDS011;2826;51.354;9.588;2022-07-24T10:56:15;4.20;;;3.80;;
5608;SDS011;2826;51.354;9.588;2022-07-24T10:58:57;3.37;;;3.07;;
5608;SDS011;2826;51.354;9.588;2022-07-24T11:01:26;5.90;;;3.67;;
5608;SDS011;2826;51.354;9.588;2022-07-24T11:06:55;5.90;;;3.40;;
5608;SDS011;2826;51.354;9.588;2022-07-24T11:09:26;4.23;;;3.70;;
5608;SDS011;2826;51.354;9.588;2022-07-24T11:12:05;4.40;;;3.73;;
5608;SDS011;2826;51.354;9.588;2022-07-24T11:14:48;5.13;;;3.50;;
5608;SDS011;2826;51.354;9.588;2022-07-24T11:20:07;4.30;;;3.90;;
5608;SDS011;2826;51.354;9.588;2022-07-24T11:22:42;5.63;;;3.70;;
5608;SDS011;2826;51.354;9.588;2022-07-24T11:25:14;3.90;;;3.60;;
5608;SDS011;2826;51.354;9.588;2022-07-24T11:27:45;5.23;;;3.30;;
5608;SDS011;2826;51.354;9.588;2022-07-24T11:30:18;3.37;;;2.83;;
5608;SDS011;2826;51.354;9.588;2022-07-24T11:32:46;4.27;;;3.50;;
5608;SDS011;2826;51.354;9.588;2022-07-24T11:35:13;5.67;;;4.20;;
5608;SDS011;2826;51.354;9.588;2022-07-24T11:37:42;6.17;;;3.70;;
5608;SDS011;2826;51.354;9.588;2022-07-24T11:40:15;4.93;;;3.60;;
5608;SDS011;2826;51.354;9.588;2022-07-24T11:42:42;4.57;;;3.60;;
5608;SDS011;2826;51.354;9.588;2022-07-24T11:45:11;5.30;;;3.50;;
5608;SDS011;2826;51.354;9.588;2022-07-24T11:47:38;3.80;;;3.50;;
5608;SDS011;2826;51.354;9.588;2022-07-24T11:50:06;4.20;;;3.80;;
5608;SDS011;2826;51.354;9.588;2022-07-24T11:52:34;4.40;;;3.97;;
5608;SDS011;2826;51.354;9.588;2022-07-24T11:55:03;3.83;;;3.43;;
5608;SDS011;2826;51.354;9.588;2022-07-24T11:57:33;5.73;;;4.00;;
5608;SDS011;2826;51.354;9.588;2022-07-24T12:00:03;6.20;;;4.03;;
5608;SDS011;2826;51.354;9.588;2022-07-24T12:02:41;5.87;;;3.80;;
5608;SDS011;2826;51.354;9.588;2022-07-24T12:05:09;9.00;;;3.77;;
5608;SDS011;2826;51.354;9.588;2022-07-24T12:07:36;4.43;;;3.80;;
5608;SDS011;2826;51.354;9.588;2022-07-24T12:10:03;14.00;;;4.10;;
5608;SDS011;2826;51.354;9.588;2022-07-24T12:12:30;6.73;;;4.20;;
5608;SDS011;2826;51.354;9.588;2022-07-24T12:15:00;4.03;;;3.63;;
5608;SDS011;2826;51.354;9.588;2022-07-24T12:17:30;4.10;;;3.80;;
5608;SDS011;2826;51.354;9.588;2022-07-24T12:19:59;5.43;;;3.90;;
5608;SDS011;2826;51.354;9.588;2022-07-24T12:22:27;4.77;;;3.50;;
5608;SDS011;2826;51.354;9.588;2022-07-24T12:24:54;8.07;;;3.80;;
5608;SDS011;2826;51.354;9.588;2022-07-24T12:27:36;6.07;;;3.93;;
5608;SDS011;2826;51.354;9.588;2022-07-24T12:30:21;4.40;;;4.00;;
5608;SDS011;2826;51.354;9.588;2022-07-24T12:32:53;4.03;;;3.63;;
5608;SDS011;2826;51.354;9.588;2022-07-24T12:35:25;5.23;;;3.63;;
5608;SDS011;2826;51.354;9.588;2022-07-24T12:37:53;5.80;;;3.90;;
5608;SDS011;2826;51.354;9.588;2022-07-24T12:40:22;4.73;;;3.80;;
5608;SDS011;2826;51.354;9.588;2022-07-24T12:42:55;3.90;;;3.57;;
5608;SDS011;2826;51.354;9.588;2022-07-24T12:45:24;4.00;;;3.70;;
5608;SDS011;2826;51.354;9.588;2022-07-24T12:50:57;8.20;;;4.00;;
5608;SDS011;2826;51.354;9.588;2022-07-24T12:53:29;4.53;;;3.43;;
5608;SDS011;2826;51.354;9.588;2022-07-24T12:56:02;5.00;;;3.67;;
5608;SDS011;2826;51.354;9.588;2022-07-24T12:58:49;5.10;;;3.80;;
5608;SDS011;2826;51.354;9.588;2022-07-24T13:01:23;4.50;;;3.63;;
5608;SDS011;2826;51.354;9.588;2022-07-24T13:03:58;4.10;;;3.80;;
5608;SDS011;2826;51.354;9.588;2022-07-24T13:06:30;4.10;;;3.70;;
5608;SDS011;2826;51.354;9.588;2022-07-24T13:09:01;4.90;;;4.30;;
5608;SDS011;2826;51.354;9.588;2022-07-24T13:11:29;5.00;;;3.83;;
5608;SDS011;2826;51.354;9.588;2022-07-24T13:13:56;4.00;;;3.60;;
5608;SDS011;2826;51.354;9.588;2022-07-24T13:16:27;4.43;;;3.90;;
5608;SDS011;2826;51.354;9.588;2022-07-24T13:18:55;5.10;;;3.90;;
5608;SDS011;2826;51.354;9.588;2022-07-24T13:21:22;3.47;;;3.27;;
5608;SDS011;2826;51.354;9.588;2022-07-24T13:23:49;4.50;;;4.10;;
5608;SDS011;2826;51.354;9.588;2022-07-24T13:26:16;3.57;;;3.27;;
5608;SDS011;2826;51.354;9.588;2022-07-24T13:28:43;4.33;;;3.90;;
5608;SDS011;2826;51.354;9.588;2022-07-24T13:31:10;4.20;;;3.90;;
5608;SDS011;2826;51.354;9.588;2022-07-24T13:33:38;6.00;;;3.70;;
5608;SDS011;2826;51.354;9.588;2022-07-24T13:36:05;4.43;;;4.03;;
5608;SDS011;2826;51.354;9.588;2022-07-24T13:38:32;5.17;;;4.17;;
5608;SDS011;2826;51.354;9.588;2022-07-24T13:40:59;4.57;;;3.70;;
5608;SDS011;2826;51.354;9.588;2022-07-24T13:43:27;5.07;;;3.40;;
5608;SDS011;2826;51.354;9.588;2022-07-24T13:45:53;3.97;;;3.67;;
5608;SDS011;2826;51.354;9.588;2022-07-24T13:48:20;4.23;;;3.40;;
5608;SDS011;2826;51.354;9.588;2022-07-24T13:50:48;7.60;;;3.53;;
5608;SDS011;2826;51.354;9.588;2022-07-24T13:53:15;5.10;;;4.10;;
5608;SDS011;2826;51.354;9.588;2022-07-24T13:55:42;4.57;;;3.30;;
5608;SDS011;2826;51.354;9.588;2022-07-24T13:58:09;5.73;;;3.60;;
5608;SDS011;2826;51.354;9.588;2022-07-24T14:00:36;3.57;;;3.27;;
5608;SDS011;2826;51.354;9.588;2022-07-24T14:03:03;3.43;;;3.20;;
5608;SDS011;2826;51.354;9.588;2022-07-24T14:05:29;4.20;;;3.47;;
5608;SDS011;2826;51.354;9.588;2022-07-24T14:07:58;4.03;;;3.63;;
5608;SDS011;2826;51.354;9.588;2022-07-24T14:10:25;6.23;;;3.80;;
5608;SDS011;2826;51.354;9.588;2022-07-24T14:12:52;4.97;;;3.30;;
5608;SDS011;2826;51.354;9.588;2022-07-24T14:15:19;3.70;;;3.40;;
5608;SDS011;2826;51.354;9.588;2022-07-24T14:17:46;3.63;;;3.33;;
5608;SDS011;2826;51.354;9.588;2022-07-24T14:20:13;3.83;;;3.37;;
5608;SDS011;2826;51.354;9.588;2022-07-24T14:22:40;5.03;;;3.30;;
5608;SDS011;2826;51.354;9.588;2022-07-24T14:25:09;4.87;;;3.50;;
5608;SDS011;2826;51.354;9.588;2022-07-24T14:27:36;3.70;;;3.40;;
5608;SDS011;2826;51.354;9.588;2022-07-24T14:30:04;3.83;;;3.53;;
5608;SDS011;2826;51.354;9.588;2022-07-24T14:32:32;5.07;;;3.80;;
5608;SDS011;2826;51.354;9.588;2022-07-24T14:34:59;7.03;;;3.63;;
5608;SDS011;2826;51.354;9.588;2022-07-24T14:37:27;4.40;;;3.40;;
5608;SDS011;2826;51.354;9.588;2022-07-24T14:39:54;4.47;;;3.33;;
5608;SDS011;2826;51.354;9.588;2022-07-24T14:42:22;4.83;;;3.80;;
5608;SDS011;2826;51.354;9.588;2022-07-24T14:44:48;4.10;;;3.70;;
5608;SDS011;2826;51.354;9.588;2022-07-24T14:47:16;3.70;;;3.40;;
5608;SDS011;2826;51.354;9.588;2022-07-24T14:49:43;3.67;;;3.30;;
5608;SDS011;2826;51.354;9.588;2022-07-24T14:52:10;4.33;;;3.97;;
5608;SDS011;2826;51.354;9.588;2022-07-24T14:54:36;3.87;;;3.57;;
5608;SDS011;2826;51.354;9.588;2022-07-24T14:57:03;5.33;;;3.63;;
5608;SDS011;2826;51.354;9.588;2022-07-24T14:59:31;3.70;;;3.33;;
5608;SDS011;2826;51.354;9.588;2022-07-24T15:01:58;3.70;;;3.40;;
5608;SDS011;2826;51.354;9.588;2022-07-24T15:04:25;5.93;;;3.73;;
5608;SDS011;2826;51.354;9.588;2022-07-24T15:06:52;6.93;;;3.33;;
5608;SDS011;2826;51.354;9.588;2022-07-24T15:09:18;4.97;;;3.53;;
5608;SDS011;2826;51.354;9.588;2022-07-24T15:11:45;3.93;;;3.53;;
5608;SDS011;2826;51.354;9.588;2022-07-24T15:14:12;5.50;;;3.77;;
5608;SDS011;2826;51.354;9.588;2022-07-24T15:16:40;3.97;;;3.40;;
5608;SDS011;2826;51.354;9.588;2022-07-24T15:19:07;5.80;;;3.27;;
5608;SDS011;2826;51.354;9.588;2022-07-24T15:21:34;3.20;;;3.00;;
5608;SDS011;2826;51.354;9.588;2022-07-24T15:24:02;4.60;;;4.20;;
5608;SDS011;2826;51.354;9.588;2022-07-24T15:26:29;4.60;;;3.57;;
5608;SDS011;2826;51.354;9.588;2022-07-24T15:28:56;4.07;;;3.67;;
5608;SDS011;2826;51.354;9.588;2022-07-24T15:31:22;3.87;;;3.50;;
5608;SDS011;2826;51.354;9.588;2022-07-24T15:33:51;7.93;;;3.80;;
5608;SDS011;2826;51.354;9.588;2022-07-24T15:36:18;4.73;;;3.43;;
5608;SDS011;2826;51.354;9.588;2022-07-24T15:38:44;6.00;;;3.97;;